createdAt,value
2022-10-03T00:02:12.136Z,93.10
2022-10-03T00:05:02.769Z,93.00
2022-10-03T00:07:47.521Z,93.20
2022-10-03T00:10:29.288Z,93.10
2022-10-03T00:13:12.541Z,93.20
2022-10-03T00:16:00.347Z,93.30
2022-10-03T00:18:39.199Z,93.30
2022-10-03T00:21:28.627Z,93.30
2022-10-03T00:24:07.172Z,93.20
2022-10-03T00:26:45.936Z,93.10
2022-10-03T00:29:40.635Z,93.20
2022-10-03T00:32:23.943Z,93.20
2022-10-03T00:35:12.680Z,93.30
2022-10-03T00:37:48.561Z,93.20
2022-10-03T00:41:10.045Z,93.20
2022-10-03T00:44:09.586Z,93.30
2022-10-03T00:50:30.324Z,93.10
2022-10-03T00:53:14.481Z,93.30
2022-10-03T00:56:11.520Z,93.30
2022-10-03T00:58:57.038Z,93.30
2022-10-03T01:01:40.543Z,93.40
2022-10-03T01:04:25.127Z,93.30
2022-10-03T01:07:06.763Z,93.30
2022-10-03T01:09:46.133Z,93.30
2022-10-03T01:12:39.352Z,93.40
2022-10-03T01:15:20.845Z,93.30
2022-10-03T01:18:05.778Z,93.40
2022-10-03T01:20:42.947Z,93.40
2022-10-03T01:26:35.628Z,93.30
2022-10-03T01:29:52.794Z,93.40
2022-10-03T01:33:06.892Z,93.40
2022-10-03T01:35:43.900Z,93.40
2022-10-03T01:38:23.490Z,93.30
2022-10-03T01:41:02.744Z,93.60
2022-10-03T01:43:43.219Z,93.30
2022-10-03T01:46:24.211Z,93.70
2022-10-03T01:49:02.887Z,93.20
2022-10-03T01:51:42.974Z,93.20
2022-10-03T01:54:22.250Z,93.20
2022-10-03T01:57:04.775Z,93.30
2022-10-03T01:59:43.447Z,93.30
2022-10-03T02:02:27.692Z,93.30
2022-10-03T02:05:11.602Z,93.30
2022-10-03T02:07:47.353Z,93.30
2022-10-03T02:10:27.132Z,93.20
2022-10-03T02:13:06.679Z,93.30
2022-10-03T02:15:54.983Z,93.30
2022-10-03T02:18:36.626Z,93.20
2022-10-03T02:21:13.950Z,93.30
2022-10-03T02:23:47.999Z,93.30
2022-10-03T02:26:46.551Z,93.30
2022-10-03T02:29:36.352Z,93.30
2022-10-03T02:32:32.542Z,93.30
2022-10-03T02:35:43.731Z,93.30
2022-10-03T02:38:29.800Z,93.30
2022-10-03T02:41:33.596Z,93.30
2022-10-03T02:44:29.216Z,93.30
2022-10-03T02:47:44.467Z,93.30
2022-10-03T02:50:55.859Z,93.40
2022-10-03T02:54:02.296Z,93.30
2022-10-03T02:57:09.643Z,93.20
2022-10-03T03:00:16.094Z,93.20
2022-10-03T03:03:21.512Z,93.20
2022-10-03T03:06:35.468Z,93.20
2022-10-03T03:09:40.699Z,93.20
2022-10-03T03:12:42.684Z,93.10
2022-10-03T03:15:57.070Z,93.00
2022-10-03T03:18:35.548Z,93.00
2022-10-03T03:21:15.206Z,93.00
2022-10-03T03:24:24.365Z,93.00
2022-10-03T03:27:35.546Z,93.40
2022-10-03T03:30:18.685Z,93.40
2022-10-03T03:33:14.037Z,93.00
2022-10-03T03:35:58.037Z,93.00
2022-10-03T03:38:42.150Z,93.00
2022-10-03T03:41:33.407Z,93.00
2022-10-03T03:44:26.718Z,93.00
2022-10-03T03:47:20.829Z,93.00
2022-10-03T03:50:24.545Z,93.00
2022-10-03T03:53:29.297Z,93.00
2022-10-03T03:56:21.314Z,93.00
2022-10-03T03:59:07.896Z,93.00
2022-10-03T04:02:03.686Z,93.00
2022-10-03T04:04:56.790Z,93.00
2022-10-03T04:07:42.532Z,93.00
2022-10-03T04:10:33.708Z,93.00
2022-10-03T04:13:34.590Z,93.10
2022-10-03T04:16:43.748Z,93.10
2022-10-03T04:19:21.138Z,93.10
2022-10-03T04:22:22.290Z,93.30
2022-10-03T04:25:18.746Z,93.00
2022-10-03T04:28:13.542Z,93.10
2022-10-03T04:30:58.803Z,93.10
2022-10-03T04:33:44.111Z,93.10
2022-10-03T04:36:47.578Z,93.20
2022-10-03T04:39:31.420Z,93.00
2022-10-03T04:42:11.107Z,93.10
2022-10-03T04:44:51.723Z,93.00
2022-10-03T04:47:28.518Z,93.00
2022-10-03T04:50:04.658Z,92.90
2022-10-03T04:52:41.856Z,92.80
2022-10-03T04:55:26.978Z,93.00
2022-10-03T04:58:05.188Z,93.00
2022-10-03T05:45:18.395Z,92.80
2022-10-03T05:52:52.901Z,92.90
2022-10-03T05:55:47.729Z,92.90
2022-10-03T06:03:32.048Z,92.90
2022-10-03T06:06:47.378Z,92.90
2022-10-03T06:09:59.825Z,92.80
2022-10-03T06:13:29.620Z,92.90
2022-10-03T06:16:34.198Z,92.80
2022-10-03T06:19:38.715Z,93.00
2022-10-03T06:23:24.751Z,93.40
2022-10-03T06:26:58.266Z,93.00
2022-10-03T06:37:39.810Z,93.10
2022-10-03T06:41:14.804Z,93.10
2022-10-03T06:44:54.463Z,93.10
2022-10-03T06:47:49.144Z,93.00
2022-10-03T06:54:27.043Z,93.20
2022-10-03T06:57:32.233Z,93.10
2022-10-03T07:00:18.100Z,93.80
2022-10-03T07:03:27.363Z,93.20
2022-10-03T07:26:14.089Z,93.00
2022-10-03T07:33:43.354Z,93.50
2022-10-03T07:37:30.620Z,93.40
2022-10-03T07:45:26.788Z,93.40
2022-10-03T07:48:49.739Z,93.40
2022-10-03T07:52:13.218Z,93.40
2022-10-03T07:55:27.254Z,93.60
2022-10-03T08:01:59.643Z,93.70
2022-10-03T08:09:28.284Z,93.80
2022-10-03T08:23:49.811Z,93.40
2022-10-03T08:57:42.211Z,93.30
2022-10-03T09:27:24.368Z,93.10
2022-10-03T09:30:16.061Z,93.60
2022-10-03T09:33:19.443Z,93.40
2022-10-03T09:36:17.513Z,93.30
2022-10-03T09:39:26.235Z,93.40
2022-10-03T09:42:38.148Z,93.40
2022-10-03T09:45:43.290Z,93.50
2022-10-03T09:48:50.486Z,93.60
2022-10-03T09:51:51.866Z,93.60
2022-10-03T09:54:53.063Z,93.80
2022-10-03T09:57:54.025Z,93.70
2022-10-03T10:00:26.881Z,93.60
2022-10-03T10:03:26.358Z,93.60
2022-10-03T10:06:36.221Z,93.60
2022-10-03T10:09:44.482Z,93.40
2022-10-03T10:12:55.949Z,93.50
2022-10-03T10:15:53.186Z,93.60
2022-10-03T10:19:06.945Z,93.50
2022-10-03T10:22:00.659Z,93.50
2022-10-03T10:25:31.652Z,93.60
2022-10-03T10:28:46.315Z,93.40
2022-10-03T10:31:58.634Z,93.40
2022-10-03T10:34:56.814Z,93.30
2022-10-03T10:38:03.552Z,93.40
2022-10-03T10:41:16.254Z,93.40
2022-10-03T10:44:13.608Z,93.70
2022-10-03T10:47:23.077Z,93.30
2022-10-03T10:50:29.995Z,93.20
2022-10-03T10:53:31.177Z,93.30
2022-10-03T10:56:27.984Z,93.30
2022-10-03T10:59:50.727Z,93.20
2022-10-03T11:02:56.395Z,93.40
2022-10-03T11:05:51.920Z,93.30
2022-10-03T11:08:58.346Z,93.30
2022-10-03T11:12:11.876Z,93.30
2022-10-03T11:15:35.172Z,93.20
2022-10-03T11:19:07.768Z,93.20
2022-10-03T11:22:22.737Z,93.10
2022-10-03T11:25:40.928Z,92.90
2022-10-03T11:28:57.250Z,93.00
2022-10-03T11:31:59.219Z,93.00
2022-10-03T11:35:16.418Z,93.00
2022-10-03T11:37:48.040Z,92.90
2022-10-03T11:40:33.309Z,92.90
2022-10-03T11:43:38.192Z,93.00
2022-10-03T11:46:33.129Z,93.00
2022-10-03T11:49:11.291Z,93.00
2022-10-03T11:51:52.834Z,92.90
2022-10-03T11:54:32.518Z,92.90
2022-10-03T11:57:09.485Z,92.80
2022-10-03T11:59:58.299Z,92.80
2022-10-03T12:02:53.179Z,92.70
2022-10-03T12:05:29.811Z,92.70
2022-10-03T12:08:52.643Z,92.70
2022-10-03T12:11:28.841Z,92.80
2022-10-03T12:14:17.984Z,92.70
2022-10-03T12:17:07.110Z,92.80
2022-10-03T12:19:43.296Z,92.70
2022-10-03T12:22:32.494Z,92.70
2022-10-03T12:25:15.994Z,92.60
2022-10-03T12:27:54.047Z,92.60
2022-10-03T12:30:38.219Z,92.60
2022-10-03T12:33:29.956Z,92.60
2022-10-03T12:36:10.912Z,92.40
2022-10-03T12:39:01.706Z,92.50
2022-10-03T12:42:04.911Z,92.60
2022-10-03T12:44:51.992Z,92.60
2022-10-03T12:48:01.332Z,92.60
2022-10-03T12:50:47.654Z,92.60
2022-10-03T12:56:23.273Z,92.50
2022-10-03T12:59:01.575Z,92.40
2022-10-03T13:01:54.734Z,92.40
2022-10-03T13:04:36.143Z,92.30
2022-10-03T13:07:19.881Z,92.30
2022-10-03T13:10:05.856Z,92.30
2022-10-03T13:12:46.586Z,92.30
2022-10-03T13:15:42.733Z,92.40
2022-10-03T13:18:45.077Z,92.50
2022-10-03T13:21:44.328Z,92.40
2022-10-03T13:24:32.652Z,92.40
2022-10-03T13:27:20.047Z,92.40
2022-10-03T13:29:53.802Z,92.40
2022-10-03T13:32:33.118Z,92.40
2022-10-03T13:35:34.353Z,92.50
2022-10-03T13:38:37.315Z,92.40
2022-10-03T13:41:16.190Z,92.40
2022-10-03T13:43:51.429Z,92.40
2022-10-03T13:46:25.513Z,92.30
2022-10-03T13:49:02.927Z,92.40
2022-10-03T13:51:45.240Z,92.30
2022-10-03T13:54:21.245Z,92.20
2022-10-03T13:56:56.520Z,92.20
2022-10-03T13:59:54.504Z,92.40
2022-10-03T14:03:05.086Z,92.30
2022-10-03T14:05:58.978Z,92.60
2022-10-03T14:08:52.805Z,92.20
2022-10-03T14:11:28.230Z,92.20
2022-10-03T14:14:24.405Z,92.20
2022-10-03T14:17:01.089Z,92.10
2022-10-03T14:19:39.415Z,92.10
2022-10-03T14:22:29.323Z,92.10
2022-10-03T14:25:12.085Z,92.10
2022-10-03T14:27:49.179Z,92.10
2022-10-03T14:30:19.811Z,92.00
2022-10-03T14:33:17.361Z,92.00
2022-10-03T14:35:56.622Z,92.00
2022-10-03T14:38:58.903Z,92.00
2022-10-03T14:41:42.847Z,92.00
2022-10-03T14:44:15.220Z,92.00
2022-10-03T14:49:58.407Z,91.90
2022-10-03T14:52:33.021Z,91.90
2022-10-03T14:55:15.632Z,91.80
2022-10-03T14:58:13.167Z,91.90
2022-10-03T15:00:46.195Z,91.90
2022-10-03T15:03:24.497Z,91.90
2022-10-03T15:06:43.527Z,91.80
2022-10-03T15:09:20.287Z,91.80
2022-10-03T15:11:54.532Z,91.90
2022-10-03T15:14:29.304Z,91.80
2022-10-03T15:17:01.590Z,91.80
2022-10-03T15:19:35.368Z,91.80
2022-10-03T15:22:14.551Z,91.80
2022-10-03T15:24:46.697Z,91.80
2022-10-03T15:27:22.562Z,91.80
2022-10-03T15:30:31.433Z,91.80
2022-10-03T15:33:10.022Z,91.80
2022-10-03T15:35:47.264Z,91.70
2022-10-03T15:38:19.824Z,91.80
2022-10-03T15:41:24.531Z,91.80
2022-10-03T15:44:00.950Z,91.70
2022-10-03T15:46:36.892Z,91.70
2022-10-03T15:49:11.471Z,91.60
2022-10-03T15:51:42.496Z,91.70
2022-10-03T15:54:20.816Z,91.70
2022-10-03T15:56:55.799Z,91.60
2022-10-03T15:59:29.508Z,91.60
2022-10-03T16:02:05.775Z,91.60
2022-10-03T16:04:37.909Z,91.60
2022-10-03T16:07:13.045Z,91.60
2022-10-03T16:09:53.323Z,91.50
2022-10-03T16:12:53.027Z,91.60
2022-10-03T16:15:54.997Z,91.70
2022-10-03T16:19:03.193Z,91.70
2022-10-03T16:21:48.377Z,92.10
2022-10-03T16:24:37.086Z,91.80
2022-10-03T16:27:15.791Z,91.80
2022-10-03T16:29:52.974Z,91.80
2022-10-03T16:32:25.353Z,91.70
2022-10-03T16:35:04.419Z,91.90
2022-10-03T16:37:35.309Z,91.90
2022-10-03T16:40:09.034Z,91.80
2022-10-03T16:42:45.837Z,91.80
2022-10-03T16:45:32.659Z,91.80
2022-10-03T16:48:29.657Z,91.70
2022-10-03T16:51:37.982Z,91.70
2022-10-03T16:54:10.107Z,91.80
2022-10-03T16:56:47.201Z,91.70
2022-10-03T16:59:20.154Z,91.50
2022-10-03T17:01:53.130Z,91.50
2022-10-03T17:04:26.257Z,91.50
2022-10-03T17:07:01.041Z,91.50
2022-10-03T17:15:56.001Z,91.50
2022-10-03T17:18:32.345Z,91.60
2022-10-03T17:21:17.278Z,91.60
2022-10-03T17:25:17.993Z,91.70
2022-10-03T17:31:54.579Z,91.70
2022-10-03T17:35:35.078Z,91.70
2022-10-03T17:38:50.245Z,91.70
2022-10-03T17:45:19.997Z,91.80
2022-10-03T17:48:39.023Z,91.80
2022-10-03T17:51:41.489Z,91.80
2022-10-03T17:54:44.940Z,91.90
2022-10-03T17:57:22.145Z,91.90
2022-10-03T17:59:58.854Z,91.90
2022-10-03T18:02:37.869Z,91.90
2022-10-03T18:05:24.575Z,91.90
2022-10-03T18:07:58.665Z,91.80
2022-10-03T18:10:32.539Z,91.70
2022-10-03T18:13:09.482Z,91.80
2022-10-03T18:16:04.395Z,91.70
2022-10-03T18:19:00.100Z,91.70
2022-10-03T18:22:01.072Z,91.80
2022-10-03T18:25:02.472Z,91.90
2022-10-03T18:28:08.582Z,91.90
2022-10-03T18:30:51.549Z,91.90
2022-10-03T18:33:51.745Z,91.90
2022-10-03T18:36:38.105Z,92.10
2022-10-03T18:39:28.083Z,92.20
2022-10-03T18:42:12.338Z,91.70
2022-10-03T18:45:04.297Z,92.00
2022-10-03T18:47:44.530Z,91.90
2022-10-03T18:50:45.876Z,91.90
2022-10-03T18:53:28.820Z,91.90
2022-10-03T18:56:02.703Z,92.00
2022-10-03T18:58:40.324Z,91.90
2022-10-03T19:01:27.009Z,92.00
2022-10-03T19:04:03.679Z,92.00
2022-10-03T19:06:38.250Z,92.00
2022-10-03T19:09:19.841Z,92.10
2022-10-03T19:11:56.440Z,92.10
2022-10-03T19:14:34.645Z,92.00
2022-10-03T19:17:26.374Z,91.90
2022-10-03T19:20:15.307Z,92.00
2022-10-03T19:23:00.833Z,92.00
2022-10-03T19:25:39.000Z,92.10
2022-10-03T19:28:21.995Z,92.20
2022-10-03T19:31:06.191Z,92.10
2022-10-03T19:33:54.484Z,92.00
2022-10-03T19:37:58.047Z,92.20
2022-10-03T19:40:40.537Z,92.20
2022-10-03T19:43:46.167Z,92.10
2022-10-03T19:49:36.064Z,92.00
2022-10-03T19:52:27.766Z,92.00
2022-10-03T19:55:03.738Z,92.00
2022-10-03T19:58:13.550Z,91.90
2022-10-03T20:00:51.898Z,91.90
2022-10-03T20:03:30.648Z,91.90
2022-10-03T20:06:27.834Z,92.20
2022-10-03T20:13:27.214Z,91.90
2022-10-03T20:16:37.480Z,91.80
2022-10-03T20:27:14.306Z,91.80
2022-10-03T20:29:48.677Z,91.70
2022-10-03T20:32:26.655Z,91.80
2022-10-03T20:35:03.803Z,91.70
2022-10-03T20:37:50.548Z,91.70
2022-10-03T20:41:04.512Z,91.70
2022-10-03T20:43:41.864Z,91.60
2022-10-03T20:46:19.023Z,91.70
2022-10-03T20:49:11.034Z,91.60
2022-10-03T20:51:43.398Z,91.60
2022-10-03T20:54:19.070Z,91.70
2022-10-03T20:57:05.763Z,91.70
2022-10-03T20:59:44.283Z,91.60
2022-10-03T21:02:30.154Z,91.70
2022-10-03T21:05:03.986Z,91.60
2022-10-03T21:07:39.163Z,91.70
2022-10-03T21:10:22.005Z,91.70
2022-10-03T21:12:53.493Z,91.70
2022-10-03T21:15:31.117Z,91.60
2022-10-03T21:18:00.385Z,91.70
2022-10-03T21:20:36.150Z,91.70
2022-10-03T21:23:15.498Z,91.70
2022-10-03T21:25:45.975Z,91.70
2022-10-03T21:28:26.395Z,91.70
2022-10-03T21:31:12.157Z,91.80
2022-10-03T21:33:49.100Z,91.70
2022-10-03T21:36:27.528Z,91.70
2022-10-03T21:39:05.663Z,91.80
2022-10-03T21:41:42.035Z,91.90
2022-10-03T21:44:28.287Z,91.70
2022-10-03T21:47:07.334Z,91.80
2022-10-03T21:49:52.496Z,91.80
2022-10-03T21:52:37.773Z,91.90
2022-10-03T21:55:45.374Z,91.70
2022-10-03T21:58:57.585Z,91.80
2022-10-03T22:01:34.316Z,91.80
2022-10-03T22:04:09.602Z,91.70
2022-10-03T22:06:44.642Z,91.70
2022-10-03T22:09:17.166Z,91.70
2022-10-03T22:11:50.425Z,92.00
2022-10-03T22:14:28.047Z,91.60
2022-10-03T22:17:05.936Z,91.60
2022-10-03T22:19:40.348Z,91.60
2022-10-03T22:22:18.519Z,91.60
2022-10-03T22:25:00.369Z,91.60
2022-10-03T22:27:36.645Z,91.60
2022-10-03T22:30:12.392Z,92.00
2022-10-03T22:32:51.914Z,91.60
2022-10-03T22:35:34.019Z,91.70
2022-10-03T22:38:04.023Z,91.60
2022-10-03T22:40:35.110Z,91.60
2022-10-03T22:43:07.417Z,91.60
2022-10-03T22:45:41.062Z,91.50
2022-10-03T22:48:16.571Z,91.50
2022-10-03T22:50:46.282Z,91.60
2022-10-03T22:53:19.279Z,91.50
2022-10-03T22:55:53.310Z,91.60
2022-10-03T22:58:24.378Z,91.60
2022-10-03T23:01:00.923Z,91.60
2022-10-03T23:03:33.054Z,91.50
2022-10-03T23:06:35.100Z,91.60
2022-10-03T23:09:13.354Z,91.60
2022-10-03T23:11:48.385Z,91.60
2022-10-03T23:14:23.521Z,91.50
2022-10-03T23:16:55.835Z,91.60
2022-10-03T23:19:35.477Z,91.50
2022-10-03T23:22:05.895Z,91.50
2022-10-03T23:24:41.059Z,91.50
2022-10-03T23:27:36.855Z,91.50
2022-10-03T23:30:51.847Z,91.50
2022-10-03T23:33:46.047Z,91.50
2022-10-03T23:36:18.600Z,91.50
2022-10-03T23:39:01.582Z,91.50
2022-10-03T23:42:01.144Z,91.50
2022-10-03T23:44:49.733Z,91.50
2022-10-03T23:47:24.698Z,91.50
2022-10-03T23:49:53.932Z,91.50
2022-10-03T23:52:27.488Z,91.50
2022-10-03T23:55:02.083Z,91.50
2022-10-03T23:57:35.093Z,91.50
